Time,TemperatureF,DewpointF,PressureIn,WindDirection,WindDirectionDegrees,WindSpeedMPH,WindSpeedGustMPH,Humidity,HourlyPrecipIn,Conditions,Clouds,dailyrainin,SoftwareType,DateUTC
2013-01-05 00:02:00,47.3,45.7,30.44,North,0,0.0,0.0,94,0.00,,,0.00,WUHU216HW,2013-01-05 00:02:00,
2013-01-05 00:07:00,47.5,46.2,30.44,North,0,0.0,0.0,95,0.00,,,0.00,WUHU216HW,2013-01-05 00:07:00,
2013-01-05 00:12:00,47.5,45.9,30.44,North,0,0.0,0.0,94,0.00,,,0.00,WUHU216HW,2013-01-05 00:12:00,
2013-01-05 00:17:00,47.5,45.9,30.43,North,0,0.0,0.0,94,0.00,,,0.00,WUHU216HW,2013-01-05 00:17:00,
2013-01-05 00:22:00,47.5,45.9,30.43,North,0,0.0,0.0,94,0.00,,,0.00,WUHU216HW,2013-01-05 00:22:00,
2013-01-05 00:27:00,47.5,45.9,30.43,North,0,0.0,0.0,94,0.00,,,0.00,WUHU216HW,2013-01-05 00:27:00,
2013-01-05 00:32:00,47.5,45.9,30.43,North,0,0.0,0.0,94,0.00,,,0.00,WUHU216HW,2013-01-05 00:32:00,
2013-01-05 00:37:00,47.7,46.1,30.43,North,0,0.0,0.0,94,0.00,,,0.00,WUHU216HW,2013-01-05 00:37:00,
2013-01-05 00:42:00,47.7,46.1,30.43,North,0,0.0,0.0,94,0.00,,,0.00,WUHU216HW,2013-01-05 00:42:00,
2013-01-05 00:47:00,47.7,46.1,30.43,North,0,0.0,0.0,94,0.00,,,0.00,WUHU216HW,2013-01-05 00:47:00,
2013-01-05 00:52:00,47.7,46.1,30.43,North,0,0.0,0.0,94,0.00,,,0.00,WUHU216HW,2013-01-05 00:52:00,
2013-01-05 00:57:00,47.7,46.1,30.42,North,0,0.0,0.0,94,0.00,,,0.00,WUHU216HW,2013-01-05 00:57:00,
2013-01-05 01:02:00,47.7,46.1,30.42,North,0,0.0,0.0,94,0.00,,,0.00,WUHU216HW,2013-01-05 01:02:00,
2013-01-05 01:07:00,47.7,46.1,30.42,North,0,0.0,0.0,94,0.00,,,0.00,WUHU216HW,2013-01-05 01:07:00,
2013-01-05 01:12:00,47.7,46.1,30.42,North,0,0.0,0.0,94,0.00,,,0.00,WUHU216HW,2013-01-05 01:12:00,
2013-01-05 01:17:00,47.9,46.3,30.42,WNW,293,0.0,0.0,94,0.00,,,0.00,WUHU216HW,2013-01-05 01:17:00,
2013-01-05 01:22:00,47.7,46.1,30.42,WNW,293,0.0,0.0,94,0.00,,,0.00,WUHU216HW,2013-01-05 01:22:00,
2013-01-05 01:27:00,47.7,46.1,30.42,WNW,293,0.0,0.0,94,0.00,,,0.00,WUHU216HW,2013-01-05 01:27:00,
2013-01-05 01:32:00,47.7,46.1,30.42,WNW,293,0.0,0.0,94,0.00,,,0.00,WUHU216HW,2013-01-05 01:32:00,
2013-01-05 01:37:00,47.5,45.9,30.42,WNW,293,0.0,0.0,94,0.00,,,0.00,WUHU216HW,2013-01-05 01:37:00,
2013-01-05 01:42:00,47.7,46.1,30.41,WNW,293,0.0,0.0,94,0.00,,,0.00,WUHU216HW,2013-01-05 01:42:00,
2013-01-05 01:47:00,47.7,46.1,30.41,WNW,293,0.0,0.0,94,0.00,,,0.00,WUHU216HW,2013-01-05 01:47:00,
2013-01-05 01:52:00,47.7,46.1,30.41,WNW,293,0.0,0.0,94,0.00,,,0.00,WUHU216HW,2013-01-05 01:52:00,
2013-01-05 01:57:00,47.7,46.1,30.41,WNW,293,0.0,0.0,94,0.00,,,0.00,WUHU216HW,2013-01-05 01:57:00,
2013-01-05 02:02:00,47.9,46.3,30.41,WNW,293,0.0,0.0,94,0.00,,,0.00,WUHU216HW,2013-01-05 02:02:00,
2013-01-05 02:07:00,47.9,46.3,30.41,WNW,293,0.0,0.0,94,0.00,,,0.00,WUHU216HW,2013-01-05 02:07:00,
2013-01-05 02:12:00,47.9,46.3,30.41,WNW,293,0.0,0.0,94,0.00,,,0.00,WUHU216HW,2013-01-05 02:12:00,
2013-01-05 02:17:00,47.7,46.1,30.41,WNW,293,0.0,0.0,94,0.00,,,0.00,WUHU216HW,2013-01-05 02:17:00,
2013-01-05 02:22:00,47.7,46.1,30.41,WNW,293,0.0,0.0,94,0.00,,,0.00,WUHU216HW,2013-01-05 02:22:00,
2013-01-05 02:27:00,47.7,46.1,30.40,WNW,293,0.0,0.0,94,0.00,,,0.00,WUHU216HW,2013-01-05 02:27:00,
2013-01-05 02:32:00,47.7,46.1,30.41,WNW,293,0.0,0.0,94,0.00,,,0.00,WUHU216HW,2013-01-05 02:32:00,
2013-01-05 02:37:00,47.7,46.1,30.40,WNW,293,0.2,0.2,94,0.00,,,0.00,WUHU216HW,2013-01-05 02:37:00,
2013-01-05 02:42:00,47.7,46.1,30.40,WNW,293,0.0,0.2,94,0.00,,,0.00,WUHU216HW,2013-01-05 02:42:00,
2013-01-05 02:47:00,47.9,46.3,30.40,WNW,293,1.1,1.1,94,0.00,,,0.00,WUHU216HW,2013-01-05 02:47:00,
2013-01-05 02:52:00,47.9,46.3,30.40,WNW,293,0.0,1.1,94,0.00,,,0.00,WUHU216HW,2013-01-05 02:52:00,
2013-01-05 02:57:00,47.9,46.3,30.40,WNW,293,0.9,1.1,94,0.00,,,0.00,WUHU216HW,2013-01-05 02:57:00,
2013-01-05 03:02:00,47.9,46.3,30.40,WNW,293,0.2,0.9,94,0.00,,,0.00,WUHU216HW,2013-01-05 03:02:00,
2013-01-05 03:07:00,47.9,46.3,30.40,WNW,293,0.4,0.9,94,0.00,,,0.00,WUHU216HW,2013-01-05 03:07:00,
2013-01-05 03:12:00,47.7,46.1,30.39,WNW,293,0.0,0.4,94,0.00,,,0.00,WUHU216HW,2013-01-05 03:12:00,
2013-01-05 03:17:00,47.7,46.1,30.39,WNW,293,0.4,0.4,94,0.00,,,0.00,WUHU216HW,2013-01-05 03:17:00,
2013-01-05 03:22:00,47.7,46.1,30.39,WNW,293,0.4,0.4,94,0.00,,,0.00,WUHU216HW,2013-01-05 03:22:00,
2013-01-05 03:27:00,47.7,46.1,30.39,WNW,293,0.0,0.4,94,0.00,,,0.00,WUHU216HW,2013-01-05 03:27:00,
2013-01-05 03:32:00,47.7,46.1,30.39,WNW,293,0.0,0.4,94,0.00,,,0.00,WUHU216HW,2013-01-05 03:32:00,
2013-01-05 03:37:00,47.7,46.1,30.39,WNW,293,0.0,0.0,94,0.00,,,0.00,WUHU216HW,2013-01-05 03:37:00,
2013-01-05 03:42:00,47.5,45.9,30.39,WNW,293,0.0,0.0,94,0.00,,,0.00,WUHU216HW,2013-01-05 03:42:00,
2013-01-05 03:47:00,47.5,45.9,30.39,WNW,293,0.0,0.0,94,0.00,,,0.00,WUHU216HW,2013-01-05 03:47:00,
2013-01-05 03:52:00,47.5,45.9,30.38,WNW,293,0.0,0.0,94,0.00,,,0.00,WUHU216HW,2013-01-05 03:52:00,
2013-01-05 03:57:00,47.5,45.9,30.38,WNW,293,0.0,0.0,94,0.00,,,0.00,WUHU216HW,2013-01-05 03:57:00,
2013-01-05 04:02:00,47.5,45.9,30.38,WNW,293,0.0,0.0,94,0.00,,,0.00,WUHU216HW,2013-01-05 04:02:00,
2013-01-05 04:07:00,47.9,46.3,30.38,ENE,68,0.4,0.4,94,0.00,,,0.00,WUHU216HW,2013-01-05 04:07:00,
2013-01-05 04:12:00,47.9,46.3,30.38,ENE,68,0.0,0.4,94,0.00,,,0.00,WUHU216HW,2013-01-05 04:12:00,
2013-01-05 04:17:00,47.9,46.3,30.38,NE,45,0.7,0.7,94,0.00,,,0.00,WUHU216HW,2013-01-05 04:17:00,
2013-01-05 04:22:00,47.9,46.3,30.38,NE,45,0.2,0.7,94,0.00,,,0.00,WUHU216HW,2013-01-05 04:22:00,
2013-01-05 04:27:00,48.1,46.4,30.38,WNW,293,0.4,0.7,94,0.00,,,0.00,WUHU216HW,2013-01-05 04:27:00,
2013-01-05 04:32:00,48.1,46.4,30.38,South,180,0.0,0.4,94,0.00,,,0.00,WUHU216HW,2013-01-05 04:32:00,
2013-01-05 04:37:00,48.1,46.4,30.38,West,270,0.4,0.4,94,0.00,,,0.00,WUHU216HW,2013-01-05 04:37:00,
2013-01-05 04:42:00,48.1,46.4,30.38,West,270,0.2,0.4,94,0.00,,,0.00,WUHU216HW,2013-01-05 04:42:00,
2013-01-05 04:47:00,48.1,46.4,30.38,WSW,248,0.0,0.4,94,0.00,,,0.00,WUHU216HW,2013-01-05 04:47:00,
2013-01-05 04:52:00,48.1,46.4,30.38,WSW,248,0.0,0.2,94,0.00,,,0.00,WUHU216HW,2013-01-05 04:52:00,
2013-01-05 04:57:00,48.2,46.6,30.38,WSW,248,0.0,0.0,94,0.00,,,0.00,WUHU216HW,2013-01-05 04:57:00,
2013-01-05 05:02:00,48.1,46.4,30.37,WSW,248,0.0,0.0,94,0.00,,,0.00,WUHU216HW,2013-01-05 05:02:00,
2013-01-05 05:07:00,48.2,46.6,30.37,WSW,248,0.0,0.0,94,0.00,,,0.00,WUHU216HW,2013-01-05 05:07:00,
2013-01-05 05:12:00,48.2,46.6,30.37,WSW,248,0.0,0.0,94,0.00,,,0.00,WUHU216HW,2013-01-05 05:12:00,
2013-01-05 05:17:00,48.2,46.6,30.37,WSW,248,0.0,0.0,94,0.00,,,0.00,WUHU216HW,2013-01-05 05:17:00,
2013-01-05 05:22:00,48.2,46.6,30.36,WSW,248,0.0,0.0,94,0.00,,,0.00,WUHU216HW,2013-01-05 05:22:00,
2013-01-05 05:27:00,48.2,46.6,30.37,WSW,248,0.0,0.0,94,0.00,,,0.00,WUHU216HW,2013-01-05 05:27:00,
2013-01-05 05:32:00,48.2,46.6,30.37,WSW,248,0.0,0.0,94,0.00,,,0.00,WUHU216HW,2013-01-05 05:32:00,
2013-01-05 05:37:00,48.2,46.6,30.37,WSW,248,0.0,0.0,94,0.00,,,0.00,WUHU216HW,2013-01-05 05:37:00,
2013-01-05 05:42:00,48.1,46.4,30.37,WSW,248,0.0,0.0,94,0.00,,,0.00,WUHU216HW,2013-01-05 05:42:00,
2013-01-05 05:47:00,48.1,46.4,30.36,WSW,248,1.6,1.6,94,0.00,,,0.00,WUHU216HW,2013-01-05 05:47:00,
2013-01-05 05:52:00,48.1,46.4,30.37,SW,225,0.0,1.6,94,0.00,,,0.00,WUHU216HW,2013-01-05 05:52:00,
2013-01-05 05:57:00,48.1,46.4,30.37,WSW,248,0.0,1.6,94,0.00,,,0.00,WUHU216HW,2013-01-05 05:57:00,
2013-01-05 06:02:00,48.1,46.4,30.37,WSW,248,0.0,0.0,94,0.00,,,0.00,WUHU216HW,2013-01-05 06:02:00,
2013-01-05 06:07:00,48.1,46.4,30.37,WSW,248,0.0,0.0,94,0.00,,,0.00,WUHU216HW,2013-01-05 06:07:00,
2013-01-05 06:12:00,48.1,46.4,30.37,WSW,248,0.0,0.0,94,0.00,,,0.00,WUHU216HW,2013-01-05 06:12:00,
2013-01-05 06:17:00,48.1,46.4,30.37,WSW,248,1.1,1.1,94,0.00,,,0.00,WUHU216HW,2013-01-05 06:17:00,
2013-01-05 06:22:00,48.1,46.4,30.37,NE,45,0.2,1.1,94,0.00,,,0.00,WUHU216HW,2013-01-05 06:22:00,
2013-01-05 06:27:00,48.1,46.4,30.37,ENE,68,0.4,1.1,94,0.00,,,0.00,WUHU216HW,2013-01-05 06:27:00,
2013-01-05 06:32:00,48.1,46.4,30.36,NE,45,0.9,0.9,94,0.00,,,0.00,WUHU216HW,2013-01-05 06:32:00,
2013-01-05 06:37:00,48.2,46.6,30.36,NW,315,0.4,0.9,94,0.00,,,0.00,WUHU216HW,2013-01-05 06:37:00,
2013-01-05 06:42:00,48.2,46.6,30.36,NW,315,0.4,0.7,94,0.00,,,0.00,WUHU216HW,2013-01-05 06:42:00,
2013-01-05 06:47:00,48.2,46.6,30.36,NW,315,0.4,0.4,94,0.00,,,0.00,WUHU216HW,2013-01-05 06:47:00,
2013-01-05 06:52:00,48.2,46.6,30.36,NW,315,0.0,0.4,94,0.00,,,0.00,WUHU216HW,2013-01-05 06:52:00,
2013-01-05 06:57:00,48.2,46.6,30.35,NW,315,0.0,0.0,94,0.00,,,0.00,WUHU216HW,2013-01-05 06:57:00,
2013-01-05 07:02:00,48.2,46.6,30.35,NW,315,0.0,0.0,94,0.00,,,0.00,WUHU216HW,2013-01-05 07:02:00,
2013-01-05 07:07:00,48.2,46.6,30.36,NW,315,0.0,0.0,94,0.00,,,0.00,WUHU216HW,2013-01-05 07:07:00,
2013-01-05 07:12:00,48.2,46.6,30.36,NW,315,0.4,0.4,94,0.00,,,0.00,WUHU216HW,2013-01-05 07:12:00,
2013-01-05 07:17:00,48.2,46.6,30.36,SW,225,1.1,1.1,94,0.00,,,0.00,WUHU216HW,2013-01-05 07:17:00,
2013-01-05 07:22:00,48.2,46.6,30.36,West,270,0.0,1.1,94,0.00,,,0.00,WUHU216HW,2013-01-05 07:22:00,
2013-01-05 07:27:00,48.2,46.6,30.36,West,270,0.0,1.1,94,0.00,,,0.00,WUHU216HW,2013-01-05 07:27:00,
2013-01-05 07:32:00,48.2,46.6,30.36,West,270,0.4,0.4,94,0.00,,,0.00,WUHU216HW,2013-01-05 07:32:00,
2013-01-05 07:37:00,48.2,46.6,30.36,NW,315,1.1,1.1,94,0.00,,,0.00,WUHU216HW,2013-01-05 07:37:00,
2013-01-05 07:42:00,48.2,46.6,30.36,NW,315,0.0,1.1,94,0.00,,,0.00,WUHU216HW,2013-01-05 07:42:00,
2013-01-05 07:47:00,48.2,46.6,30.36,NW,315,0.0,1.1,94,0.00,,,0.00,WUHU216HW,2013-01-05 07:47:00,
2013-01-05 07:52:00,48.2,46.6,30.36,NW,315,0.2,0.2,94,0.00,,,0.00,WUHU216HW,2013-01-05 07:52:00,
2013-01-05 07:57:00,48.2,46.6,30.36,WNW,293,0.0,0.2,94,0.00,,,0.00,WUHU216HW,2013-01-05 07:57:00,
2013-01-05 08:02:00,48.4,46.5,30.36,SSW,203,0.0,0.2,93,0.00,,,0.00,WUHU216HW,2013-01-05 08:02:00,
2013-01-05 08:08:00,48.4,46.5,30.36,West,270,0.9,0.9,93,0.00,,,0.00,WUHU216HW,2013-01-05 08:08:00,
2013-01-05 08:13:00,48.4,46.5,30.36,WSW,248,0.0,0.9,93,0.00,,,0.00,WUHU216HW,2013-01-05 08:13:00,
2013-01-05 08:18:00,48.4,46.5,30.36,NE,45,1.1,1.1,93,0.00,,,0.00,WUHU216HW,2013-01-05 08:18:00,
2013-01-05 08:23:00,48.4,46.5,30.36,WNW,293,0.9,1.1,93,0.00,,,0.00,WUHU216HW,2013-01-05 08:23:00,
2013-01-05 08:28:00,48.4,46.5,30.36,SE,135,0.4,1.1,93,0.00,,,0.00,WUHU216HW,2013-01-05 08:28:00,
2013-01-05 08:33:00,48.4,46.5,30.36,SE,135,0.9,0.9,93,0.00,,,0.00,WUHU216HW,2013-01-05 08:33:00,
2013-01-05 08:38:00,48.4,46.5,30.36,SSW,203,3.4,3.4,93,0.00,,,0.00,WUHU216HW,2013-01-05 08:38:00,
2013-01-05 08:43:00,48.4,46.5,30.36,SSW,203,0.7,3.4,93,0.00,,,0.00,WUHU216HW,2013-01-05 08:43:00,
2013-01-05 08:48:00,48.4,46.8,30.35,SSW,203,0.0,3.4,94,0.01,,,0.01,WUHU216HW,2013-01-05 08:48:00,
2013-01-05 08:53:00,48.4,46.5,30.35,North,0,0.0,1.1,93,0.01,,,0.01,WUHU216HW,2013-01-05 08:53:00,
2013-01-05 08:58:00,48.4,46.8,30.36,WNW,293,1.8,1.8,94,0.01,,,0.01,WUHU216HW,2013-01-05 08:58:00,
2013-01-05 09:03:00,48.4,46.8,30.35,WSW,248,4.0,4.0,94,0.01,,,0.01,WUHU216HW,2013-01-05 09:03:00,
2013-01-05 09:08:00,48.4,46.8,30.36,ENE,68,0.0,4.0,94,0.01,,,0.01,WUHU216HW,2013-01-05 09:08:00,
2013-01-05 09:13:00,48.4,46.5,30.35,South,180,1.1,1.1,93,0.01,,,0.01,WUHU216HW,2013-01-05 09:13:00,
2013-01-05 09:18:00,48.6,46.7,30.36,SSE,158,0.2,1.1,93,0.01,,,0.01,WUHU216HW,2013-01-05 09:18:00,
2013-01-05 09:23:00,48.6,46.5,30.35,South,180,5.6,5.6,92,0.01,,,0.01,WUHU216HW,2013-01-05 09:23:00,
2013-01-05 09:28:00,48.6,46.5,30.36,South,180,5.6,5.6,92,0.01,,,0.01,WUHU216HW,2013-01-05 09:28:00,
2013-01-05 09:33:00,48.6,46.5,30.36,North,0,0.0,5.6,92,0.01,,,0.01,WUHU216HW,2013-01-05 09:33:00,
2013-01-05 09:38:00,48.8,46.6,30.36,North,0,0.0,5.6,92,0.01,,,0.01,WUHU216HW,2013-01-05 09:38:00,
2013-01-05 09:43:00,48.8,46.6,30.35,North,0,0.0,0.0,92,0.01,,,0.01,WUHU216HW,2013-01-05 09:43:00,
2013-01-05 09:48:00,49.0,46.4,30.36,North,0,0.0,0.0,91,0.00,,,0.01,WUHU216HW,2013-01-05 09:48:00,
2013-01-05 09:53:00,48.8,46.3,30.35,North,0,0.0,0.0,91,0.00,,,0.01,WUHU216HW,2013-01-05 09:53:00,
2013-01-05 09:58:00,48.8,46.3,30.36,North,0,0.0,0.0,91,0.00,,,0.01,WUHU216HW,2013-01-05 09:58:00,
2013-01-05 10:03:00,48.8,46.3,30.36,North,0,0.0,0.0,91,0.00,,,0.01,WUHU216HW,2013-01-05 10:03:00,
2013-01-05 10:08:00,48.8,46.3,30.35,North,0,0.0,0.0,91,0.00,,,0.01,WUHU216HW,2013-01-05 10:08:00,
2013-01-05 10:13:00,48.6,46.2,30.36,North,0,0.0,0.0,91,0.00,,,0.01,WUHU216HW,2013-01-05 10:13:00,
2013-01-05 10:18:00,48.6,46.2,30.36,North,0,0.0,0.0,91,0.00,,,0.01,WUHU216HW,2013-01-05 10:18:00,
2013-01-05 10:23:00,48.8,46.3,30.36,North,0,0.0,0.0,91,0.00,,,0.01,WUHU216HW,2013-01-05 10:23:00,
2013-01-05 10:28:00,48.6,46.2,30.36,North,0,0.0,0.0,91,0.00,,,0.01,WUHU216HW,2013-01-05 10:28:00,
2013-01-05 10:33:00,48.6,46.2,30.36,North,0,0.0,0.0,91,0.00,,,0.01,WUHU216HW,2013-01-05 10:33:00,
2013-01-05 10:38:00,48.8,46.3,30.36,North,0,0.0,0.0,91,0.00,,,0.01,WUHU216HW,2013-01-05 10:38:00,
2013-01-05 10:43:00,48.8,46.3,30.36,North,0,0.0,0.0,91,0.00,,,0.01,WUHU216HW,2013-01-05 10:43:00,
2013-01-05 10:48:00,48.8,46.3,30.36,North,0,0.0,0.0,91,0.00,,,0.01,WUHU216HW,2013-01-05 10:48:00,
2013-01-05 10:53:00,48.8,46.3,30.36,North,0,0.0,0.0,91,0.00,,,0.01,WUHU216HW,2013-01-05 10:53:00,
2013-01-05 10:58:00,49.0,46.4,30.36,North,0,0.0,0.0,91,0.00,,,0.01,WUHU216HW,2013-01-05 10:58:00,
2013-01-05 11:03:00,49.0,46.4,30.36,North,0,0.0,0.0,91,0.00,,,0.01,WUHU216HW,2013-01-05 11:03:00,
2013-01-05 11:08:00,48.8,46.3,30.35,North,0,0.0,0.0,91,0.00,,,0.01,WUHU216HW,2013-01-05 11:08:00,
2013-01-05 11:13:00,48.8,46.3,30.35,North,0,0.0,0.0,91,0.00,,,0.01,WUHU216HW,2013-01-05 11:13:00,
2013-01-05 11:18:00,48.8,46.3,30.35,North,0,0.0,0.0,91,0.00,,,0.01,WUHU216HW,2013-01-05 11:18:00,
2013-01-05 11:23:00,48.8,46.3,30.35,North,0,0.0,0.0,91,0.00,,,0.01,WUHU216HW,2013-01-05 11:23:00,
2013-01-05 11:28:00,48.8,46.0,30.35,North,0,0.0,0.0,90,0.00,,,0.01,WUHU216HW,2013-01-05 11:28:00,
2013-01-05 11:33:00,49.0,46.2,30.34,North,0,0.0,0.0,90,0.00,,,0.01,WUHU216HW,2013-01-05 11:33:00,
2013-01-05 11:38:00,48.8,46.0,30.34,North,0,0.0,0.0,90,0.00,,,0.01,WUHU216HW,2013-01-05 11:38:00,
2013-01-05 11:43:00,48.8,46.0,30.34,North,0,0.0,0.0,90,0.00,,,0.01,WUHU216HW,2013-01-05 11:43:00,
2013-01-05 11:48:00,49.0,46.2,30.34,North,0,0.0,0.0,90,0.00,,,0.01,WUHU216HW,2013-01-05 11:48:00,
2013-01-05 11:53:00,49.0,46.4,30.34,North,0,0.0,0.0,91,0.00,,,0.01,WUHU216HW,2013-01-05 11:53:00,
2013-01-05 11:58:00,49.0,46.4,30.33,North,0,0.0,0.0,91,0.00,,,0.01,WUHU216HW,2013-01-05 11:58:00,
2013-01-05 12:03:00,49.0,46.2,30.34,North,0,0.0,0.0,90,0.00,,,0.01,WUHU216HW,2013-01-05 12:03:00,
2013-01-05 12:08:00,49.0,46.4,30.33,North,0,0.0,0.0,91,0.00,,,0.01,WUHU216HW,2013-01-05 12:08:00,
2013-01-05 12:13:00,49.1,46.4,30.33,North,0,0.0,0.0,90,0.00,,,0.01,WUHU216HW,2013-01-05 12:13:00,
2013-01-05 12:18:00,49.1,46.6,30.33,North,0,0.0,0.0,91,0.00,,,0.01,WUHU216HW,2013-01-05 12:18:00,
2013-01-05 12:23:00,49.0,46.2,30.33,North,0,0.0,0.0,90,0.00,,,0.01,WUHU216HW,2013-01-05 12:23:00,
2013-01-05 12:28:00,49.0,46.2,30.33,North,0,0.0,0.0,90,0.00,,,0.01,WUHU216HW,2013-01-05 12:28:00,
2013-01-05 12:33:00,49.0,46.2,30.33,North,0,0.0,0.0,90,0.00,,,0.01,WUHU216HW,2013-01-05 12:33:00,
2013-01-05 12:38:00,49.0,46.2,30.33,North,0,0.0,0.0,90,0.00,,,0.01,WUHU216HW,2013-01-05 12:38:00,
2013-01-05 12:43:00,49.0,46.2,30.33,North,0,0.0,0.0,90,0.00,,,0.01,WUHU216HW,2013-01-05 12:43:00,
2013-01-05 12:48:00,49.0,46.2,30.32,North,0,0.0,0.0,90,0.00,,,0.01,WUHU216HW,2013-01-05 12:48:00,
2013-01-05 12:53:00,49.0,46.2,30.32,North,0,0.0,0.0,90,0.00,,,0.01,WUHU216HW,2013-01-05 12:53:00,
2013-01-05 12:58:00,49.0,46.2,30.32,North,0,0.0,0.0,90,0.00,,,0.01,WUHU216HW,2013-01-05 12:58:00,
2013-01-05 13:03:00,49.0,46.2,30.32,North,0,0.0,0.0,90,0.00,,,0.01,WUHU216HW,2013-01-05 13:03:00,
2013-01-05 13:08:00,49.0,46.2,30.33,North,0,0.0,0.0,90,0.00,,,0.01,WUHU216HW,2013-01-05 13:08:00,
2013-01-05 13:13:00,49.1,46.4,30.32,North,0,0.0,0.0,90,0.00,,,0.01,WUHU216HW,2013-01-05 13:13:00,
2013-01-05 13:18:00,49.1,46.4,30.32,North,0,0.0,0.0,90,0.00,,,0.01,WUHU216HW,2013-01-05 13:18:00,
2013-01-05 13:23:00,49.3,46.5,30.32,North,0,0.0,0.0,90,0.00,,,0.01,WUHU216HW,2013-01-05 13:23:00,
2013-01-05 13:28:00,49.3,46.5,30.32,North,0,0.0,0.0,90,0.00,,,0.01,WUHU216HW,2013-01-05 13:28:00,
2013-01-05 13:33:00,49.3,46.5,30.32,North,0,0.0,0.0,90,0.00,,,0.01,WUHU216HW,2013-01-05 13:33:00,
2013-01-05 13:38:00,49.3,46.5,30.31,North,0,0.0,0.0,90,0.00,,,0.01,WUHU216HW,2013-01-05 13:38:00,
2013-01-05 13:43:00,49.3,46.5,30.31,North,0,0.0,0.0,90,0.00,,,0.01,WUHU216HW,2013-01-05 13:43:00,
2013-01-05 13:48:00,49.3,46.5,30.31,North,0,0.0,0.0,90,0.00,,,0.01,WUHU216HW,2013-01-05 13:48:00,
2013-01-05 13:53:00,49.3,46.5,30.30,North,0,0.0,0.0,90,0.00,,,0.01,WUHU216HW,2013-01-05 13:53:00,
2013-01-05 13:58:00,49.3,46.5,30.30,North,0,0.0,0.0,90,0.00,,,0.01,WUHU216HW,2013-01-05 13:58:00,
2013-01-05 14:03:00,49.3,46.5,30.30,North,0,0.0,0.0,90,0.00,,,0.01,WUHU216HW,2013-01-05 14:03:00,
2013-01-05 14:08:00,49.3,46.5,30.30,North,0,0.0,0.0,90,0.00,,,0.01,WUHU216HW,2013-01-05 14:08:00,
2013-01-05 14:13:00,49.3,46.5,30.30,North,0,0.0,0.0,90,0.00,,,0.01,WUHU216HW,2013-01-05 14:13:00,
2013-01-05 14:18:00,49.3,46.5,30.30,North,0,0.0,0.0,90,0.00,,,0.01,WUHU216HW,2013-01-05 14:18:00,
2013-01-05 14:23:00,49.3,46.5,30.29,North,0,0.0,0.0,90,0.00,,,0.01,WUHU216HW,2013-01-05 14:23:00,
2013-01-05 14:28:00,49.3,46.5,30.29,North,0,0.0,0.0,90,0.00,,,0.01,WUHU216HW,2013-01-05 14:28:00,
2013-01-05 14:33:00,49.3,46.8,30.29,North,0,0.0,0.0,91,0.00,,,0.01,WUHU216HW,2013-01-05 14:33:00,
2013-01-05 14:38:00,49.3,46.8,30.28,North,0,0.0,0.0,91,0.00,,,0.01,WUHU216HW,2013-01-05 14:38:00,
2013-01-05 14:43:00,49.5,47.0,30.28,North,0,0.0,0.0,91,0.00,,,0.01,WUHU216HW,2013-01-05 14:43:00,
2013-01-05 14:48:00,49.7,47.2,30.28,North,0,0.0,0.0,91,0.00,,,0.01,WUHU216HW,2013-01-05 14:48:00,
2013-01-05 14:53:00,49.7,46.8,30.28,North,0,0.0,0.0,90,0.00,,,0.01,WUHU216HW,2013-01-05 14:53:00,
2013-01-05 14:58:00,49.7,46.8,30.28,North,0,0.0,0.0,90,0.00,,,0.01,WUHU216HW,2013-01-05 14:58:00,
2013-01-05 15:03:00,49.5,46.7,30.27,North,0,0.0,0.0,90,0.00,,,0.01,WUHU216HW,2013-01-05 15:03:00,
2013-01-05 15:08:00,49.5,46.7,30.27,North,0,0.0,0.0,90,0.00,,,0.01,WUHU216HW,2013-01-05 15:08:00,
2013-01-05 15:13:00,49.5,47.0,30.28,North,0,0.0,0.0,91,0.00,,,0.01,WUHU216HW,2013-01-05 15:13:00,
2013-01-05 15:18:00,49.5,47.0,30.28,North,0,0.0,0.0,91,0.00,,,0.01,WUHU216HW,2013-01-05 15:18:00,
2013-01-05 15:23:00,49.5,46.7,30.27,North,0,0.0,0.0,90,0.00,,,0.01,WUHU216HW,2013-01-05 15:23:00,
2013-01-05 15:28:00,49.7,46.8,30.28,North,0,0.0,0.0,90,0.00,,,0.01,WUHU216HW,2013-01-05 15:28:00,
2013-01-05 15:33:00,49.7,47.2,30.28,North,0,0.0,0.0,91,0.00,,,0.01,WUHU216HW,2013-01-05 15:33:00,
2013-01-05 15:38:00,49.7,46.8,30.28,North,0,0.0,0.0,90,0.00,,,0.01,WUHU216HW,2013-01-05 15:38:00,
2013-01-05 15:43:00,49.7,46.8,30.28,North,0,0.0,0.0,90,0.00,,,0.01,WUHU216HW,2013-01-05 15:43:00,
2013-01-05 15:48:00,49.7,46.8,30.28,North,0,0.0,0.0,90,0.00,,,0.01,WUHU216HW,2013-01-05 15:48:00,
2013-01-05 15:53:00,49.9,47.3,30.28,North,0,0.0,0.0,91,0.00,,,0.01,WUHU216HW,2013-01-05 15:53:00,
2013-01-05 15:58:00,50.0,47.4,30.27,North,0,0.0,0.0,91,0.00,,,0.01,WUHU216HW,2013-01-05 15:58:00,
2013-01-05 16:03:00,50.0,47.4,30.28,North,0,0.0,0.0,91,0.00,,,0.01,WUHU216HW,2013-01-05 16:03:00,
2013-01-05 16:08:00,50.0,47.2,30.28,North,0,0.0,0.0,90,0.00,,,0.01,WUHU216HW,2013-01-05 16:08:00,
2013-01-05 16:13:00,49.9,47.0,30.28,North,0,0.0,0.0,90,0.00,,,0.01,WUHU216HW,2013-01-05 16:13:00,
2013-01-05 16:18:00,49.9,47.0,30.28,North,0,0.0,0.0,90,0.00,,,0.01,WUHU216HW,2013-01-05 16:18:00,
2013-01-05 16:23:00,49.9,47.0,30.27,North,0,0.0,0.0,90,0.00,,,0.01,WUHU216HW,2013-01-05 16:23:00,
2013-01-05 16:28:00,49.9,47.0,30.27,North,0,0.0,0.0,90,0.00,,,0.01,WUHU216HW,2013-01-05 16:28:00,
2013-01-05 16:33:00,50.0,47.2,30.27,North,0,0.0,0.0,90,0.00,,,0.01,WUHU216HW,2013-01-05 16:33:00,
2013-01-05 16:38:00,50.0,47.2,30.27,North,0,0.0,0.0,90,0.00,,,0.01,WUHU216HW,2013-01-05 16:38:00,
2013-01-05 16:43:00,50.0,47.2,30.26,North,0,0.0,0.0,90,0.00,,,0.01,WUHU216HW,2013-01-05 16:43:00,
2013-01-05 16:48:00,49.9,47.3,30.26,North,0,0.0,0.0,91,0.00,,,0.01,WUHU216HW,2013-01-05 16:48:00,
2013-01-05 16:53:00,49.5,47.0,30.27,North,0,0.0,0.0,91,0.02,,,0.03,WUHU216HW,2013-01-05 16:53:00,
2013-01-05 16:58:00,49.5,47.0,30.27,North,0,0.0,0.0,91,0.03,,,0.05,WUHU216HW,2013-01-05 16:58:00,
2013-01-05 17:03:00,49.3,46.8,30.27,North,0,0.0,0.0,91,0.04,,,0.05,WUHU216HW,2013-01-05 17:03:00,
2013-01-05 17:08:00,49.3,47.1,30.27,North,0,0.0,0.0,92,0.05,,,0.07,WUHU216HW,2013-01-05 17:08:00,
2013-01-05 17:13:00,49.3,47.1,30.27,North,0,0.0,0.0,92,0.06,,,0.08,WUHU216HW,2013-01-05 17:13:00,
2013-01-05 17:18:00,49.3,47.1,30.27,North,0,0.0,0.0,92,0.06,,,0.08,WUHU216HW,2013-01-05 17:18:00,
2013-01-05 17:24:00,49.3,47.1,30.27,North,0,0.0,0.0,92,0.06,,,0.08,WUHU216HW,2013-01-05 17:24:00,
2013-01-05 17:29:00,49.3,47.1,30.27,North,0,0.0,0.0,92,0.06,,,0.08,WUHU216HW,2013-01-05 17:29:00,
2013-01-05 17:34:00,49.3,47.1,30.27,North,0,0.0,0.0,92,0.06,,,0.08,WUHU216HW,2013-01-05 17:34:00,
2013-01-05 17:39:00,49.1,47.2,30.26,North,0,0.0,0.0,93,0.06,,,0.08,WUHU216HW,2013-01-05 17:39:00,
2013-01-05 17:44:00,49.1,47.2,30.27,North,0,0.0,0.0,93,0.07,,,0.09,WUHU216HW,2013-01-05 17:44:00,
2013-01-05 17:49:00,49.1,47.2,30.26,North,0,0.0,0.0,93,0.07,,,0.10,WUHU216HW,2013-01-05 17:49:00,
2013-01-05 17:54:00,49.1,47.2,30.27,North,0,0.0,0.0,93,0.06,,,0.10,WUHU216HW,2013-01-05 17:54:00,
2013-01-05 17:59:00,49.1,47.2,30.27,North,0,0.0,0.0,93,0.05,,,0.10,WUHU216HW,2013-01-05 17:59:00,
2013-01-05 18:04:00,49.3,47.6,30.27,North,0,0.0,0.0,94,0.04,,,0.10,WUHU216HW,2013-01-05 18:04:00,
2013-01-05 18:09:00,49.1,47.4,30.27,North,0,0.0,0.0,94,0.02,,,0.10,WUHU216HW,2013-01-05 18:09:00,
2013-01-05 18:14:00,49.3,47.6,30.26,North,0,0.0,0.0,94,0.02,,,0.10,WUHU216HW,2013-01-05 18:14:00,
2013-01-05 18:19:00,49.3,47.6,30.26,North,0,0.0,0.0,94,0.02,,,0.10,WUHU216HW,2013-01-05 18:19:00,
2013-01-05 18:24:00,49.3,47.6,30.26,North,0,0.0,0.0,94,0.03,,,0.11,WUHU216HW,2013-01-05 18:24:00,
2013-01-05 18:29:00,49.3,47.6,30.26,North,0,0.0,0.0,94,0.03,,,0.11,WUHU216HW,2013-01-05 18:29:00,
2013-01-05 18:34:00,49.5,47.8,30.27,NW,315,1.8,1.8,94,0.03,,,0.11,WUHU216HW,2013-01-05 18:34:00,
2013-01-05 18:39:00,49.3,47.6,30.27,SSW,203,0.9,1.8,94,0.03,,,0.12,WUHU216HW,2013-01-05 18:39:00,
2013-01-05 18:44:00,49.3,47.6,30.28,NW,315,2.9,2.9,94,0.03,,,0.12,WUHU216HW,2013-01-05 18:44:00,
2013-01-05 18:49:00,49.3,47.6,30.28,NW,315,0.7,2.9,94,0.02,,,0.12,WUHU216HW,2013-01-05 18:49:00,
2013-01-05 18:54:00,49.3,47.6,30.27,North,0,0.0,2.9,94,0.02,,,0.12,WUHU216HW,2013-01-05 18:54:00,
2013-01-05 18:59:00,49.5,47.8,30.28,North,0,0.0,0.7,94,0.02,,,0.12,WUHU216HW,2013-01-05 18:59:00,
2013-01-05 19:04:00,49.7,48.0,30.28,North,0,0.0,0.0,94,0.02,,,0.12,WUHU216HW,2013-01-05 19:04:00,
2013-01-05 19:09:00,49.5,47.8,30.28,North,0,0.0,0.0,94,0.02,,,0.12,WUHU216HW,2013-01-05 19:09:00,
2013-01-05 19:14:00,49.3,47.6,30.29,North,0,0.0,0.0,94,0.02,,,0.12,WUHU216HW,2013-01-05 19:14:00,
2013-01-05 19:19:00,49.3,47.6,30.29,North,0,0.0,0.0,94,0.02,,,0.12,WUHU216HW,2013-01-05 19:19:00,
2013-01-05 19:24:00,49.3,47.6,30.29,North,0,0.0,0.0,94,0.01,,,0.12,WUHU216HW,2013-01-05 19:24:00,
2013-01-05 19:29:00,49.3,47.6,30.29,North,0,0.0,0.0,94,0.01,,,0.12,WUHU216HW,2013-01-05 19:29:00,
2013-01-05 19:34:00,49.3,47.6,30.29,North,0,0.0,0.0,94,0.00,,,0.12,WUHU216HW,2013-01-05 19:34:00,
2013-01-05 19:39:00,49.3,47.6,30.29,North,0,0.0,0.0,94,0.00,,,0.12,WUHU216HW,2013-01-05 19:39:00,
2013-01-05 19:44:00,49.3,47.6,30.30,North,0,0.0,0.0,94,0.00,,,0.12,WUHU216HW,2013-01-05 19:44:00,
2013-01-05 19:49:00,49.1,47.4,30.30,North,0,0.0,0.0,94,0.00,,,0.12,WUHU216HW,2013-01-05 19:49:00,
2013-01-05 19:54:00,49.1,47.4,30.30,North,0,0.0,0.0,94,0.00,,,0.12,WUHU216HW,2013-01-05 19:54:00,
2013-01-05 19:59:00,49.1,47.4,30.30,North,0,0.0,0.0,94,0.00,,,0.12,WUHU216HW,2013-01-05 19:59:00,
2013-01-05 20:04:00,49.3,47.6,30.30,North,0,0.0,0.0,94,0.00,,,0.12,WUHU216HW,2013-01-05 20:04:00,
2013-01-05 20:09:00,49.3,47.9,30.30,North,0,0.0,0.0,95,0.00,,,0.12,WUHU216HW,2013-01-05 20:09:00,
2013-01-05 20:14:00,49.3,47.9,30.30,North,0,0.0,0.0,95,0.00,,,0.12,WUHU216HW,2013-01-05 20:14:00,
2013-01-05 20:19:00,49.3,47.9,30.30,North,0,0.0,0.0,95,0.00,,,0.12,WUHU216HW,2013-01-05 20:19:00,
2013-01-05 20:24:00,49.3,47.9,30.30,North,0,0.0,0.0,95,0.00,,,0.12,WUHU216HW,2013-01-05 20:24:00,
2013-01-05 20:29:00,49.3,47.6,30.31,North,0,0.0,0.0,94,0.00,,,0.12,WUHU216HW,2013-01-05 20:29:00,
2013-01-05 20:34:00,49.3,47.6,30.31,North,0,0.0,0.0,94,0.00,,,0.12,WUHU216HW,2013-01-05 20:34:00,
2013-01-05 20:39:00,49.3,47.6,30.31,North,0,0.0,0.0,94,0.00,,,0.12,WUHU216HW,2013-01-05 20:39:00,
2013-01-05 20:44:00,49.3,47.6,30.32,North,0,0.0,0.0,94,0.00,,,0.12,WUHU216HW,2013-01-05 20:44:00,
2013-01-05 20:49:00,49.3,47.6,30.32,North,0,0.0,0.0,94,0.00,,,0.12,WUHU216HW,2013-01-05 20:49:00,
2013-01-05 20:54:00,49.3,47.6,30.32,North,0,0.0,0.0,94,0.00,,,0.12,WUHU216HW,2013-01-05 20:54:00,
2013-01-05 20:59:00,49.3,47.6,30.32,North,0,0.0,0.0,94,0.00,,,0.12,WUHU216HW,2013-01-05 20:59:00,
2013-01-05 21:04:00,49.3,47.6,30.33,North,0,0.0,0.0,94,0.00,,,0.12,WUHU216HW,2013-01-05 21:04:00,
2013-01-05 21:09:00,49.3,47.6,30.32,North,0,0.0,0.0,94,0.00,,,0.12,WUHU216HW,2013-01-05 21:09:00,
2013-01-05 21:14:00,49.5,47.8,30.33,North,0,0.0,0.0,94,0.00,,,0.12,WUHU216HW,2013-01-05 21:14:00,
2013-01-05 21:19:00,49.3,47.6,30.33,North,0,0.0,0.0,94,0.00,,,0.12,WUHU216HW,2013-01-05 21:19:00,
2013-01-05 21:24:00,49.3,47.6,30.32,ENE,68,2.9,2.9,94,0.00,,,0.12,WUHU216HW,2013-01-05 21:24:00,
2013-01-05 21:29:00,49.3,47.6,30.31,ENE,68,1.1,2.9,94,0.00,,,0.12,WUHU216HW,2013-01-05 21:29:00,
2013-01-05 21:34:00,49.1,47.4,30.31,NE,45,1.3,2.9,94,0.00,,,0.12,WUHU216HW,2013-01-05 21:34:00,
2013-01-05 21:39:00,49.1,47.4,30.32,WSW,248,1.6,1.6,94,0.00,,,0.12,WUHU216HW,2013-01-05 21:39:00,
2013-01-05 21:44:00,49.0,47.4,30.32,NE,45,1.1,1.6,94,0.00,,,0.12,WUHU216HW,2013-01-05 21:44:00,
2013-01-05 21:49:00,49.0,47.4,30.32,North,0,0.9,1.6,94,0.00,,,0.12,WUHU216HW,2013-01-05 21:49:00,
2013-01-05 21:54:00,48.6,47.0,30.32,SE,135,2.0,2.0,94,0.00,,,0.12,WUHU216HW,2013-01-05 21:54:00,
2013-01-05 21:59:00,48.6,47.0,30.32,North,0,0.0,2.0,94,0.00,,,0.12,WUHU216HW,2013-01-05 21:59:00,
2013-01-05 22:04:00,48.6,47.0,30.33,North,0,0.0,2.0,94,0.00,,,0.12,WUHU216HW,2013-01-05 22:04:00,
2013-01-05 22:09:00,48.6,47.0,30.33,North,0,0.0,0.0,94,0.00,,,0.12,WUHU216HW,2013-01-05 22:09:00,
2013-01-05 22:14:00,48.4,46.8,30.34,North,0,0.0,0.0,94,0.00,,,0.12,WUHU216HW,2013-01-05 22:14:00,
2013-01-05 22:19:00,48.2,46.4,30.33,North,0,0.0,0.0,93,0.00,,,0.12,WUHU216HW,2013-01-05 22:19:00,
2013-01-05 22:24:00,48.1,46.2,30.33,North,0,0.0,0.0,93,0.00,,,0.12,WUHU216HW,2013-01-05 22:24:00,
2013-01-05 22:29:00,47.9,45.7,30.32,North,0,0.0,0.0,92,0.00,,,0.12,WUHU216HW,2013-01-05 22:29:00,
2013-01-05 22:34:00,47.5,45.4,30.33,North,0,0.0,0.0,92,0.00,,,0.12,WUHU216HW,2013-01-05 22:34:00,
2013-01-05 22:39:00,47.3,45.2,30.33,North,0,0.0,0.0,92,0.00,,,0.12,WUHU216HW,2013-01-05 22:39:00,
2013-01-05 22:44:00,47.3,45.2,30.33,North,0,0.0,0.0,92,0.00,,,0.12,WUHU216HW,2013-01-05 22:44:00,
2013-01-05 22:49:00,47.2,45.0,30.34,North,0,0.0,0.0,92,0.00,,,0.12,WUHU216HW,2013-01-05 22:49:00,
2013-01-05 22:54:00,47.2,45.0,30.34,North,0,0.0,0.0,92,0.00,,,0.12,WUHU216HW,2013-01-05 22:54:00,
2013-01-05 22:59:00,46.8,44.4,30.35,North,0,0.0,0.0,91,0.00,,,0.12,WUHU216HW,2013-01-05 22:59:00,
2013-01-05 23:04:00,46.4,44.0,30.35,North,0,0.0,0.0,91,0.00,,,0.12,WUHU216HW,2013-01-05 23:04:00,
2013-01-05 23:09:00,45.7,43.3,30.35,North,0,0.0,0.0,91,0.00,,,0.12,WUHU216HW,2013-01-05 23:09:00,
2013-01-05 23:14:00,45.7,43.3,30.35,North,0,0.0,0.0,91,0.00,,,0.12,WUHU216HW,2013-01-05 23:14:00,
2013-01-05 23:19:00,45.5,43.1,30.35,North,0,0.0,0.0,91,0.00,,,0.12,WUHU216HW,2013-01-05 23:19:00,
2013-01-05 23:24:00,45.2,42.8,30.35,North,0,0.0,0.0,91,0.00,,,0.12,WUHU216HW,2013-01-05 23:24:00,
2013-01-05 23:29:00,45.2,43.0,30.35,North,0,0.0,0.0,92,0.00,,,0.12,WUHU216HW,2013-01-05 23:29:00,
2013-01-05 23:34:00,45.2,43.0,30.35,North,0,0.0,0.0,92,0.00,,,0.12,WUHU216HW,2013-01-05 23:34:00,
2013-01-05 23:39:00,45.0,42.8,30.35,North,0,0.0,0.0,92,0.00,,,0.12,WUHU216HW,2013-01-05 23:39:00,
2013-01-05 23:44:00,45.0,42.8,30.35,North,0,0.0,0.0,92,0.00,,,0.12,WUHU216HW,2013-01-05 23:44:00,
2013-01-05 23:49:00,44.8,42.7,30.35,North,0,0.0,0.0,92,0.00,,,0.12,WUHU216HW,2013-01-05 23:49:00,
2013-01-05 23:54:00,44.6,42.5,30.35,North,0,0.0,0.0,92,0.00,,,0.12,WUHU216HW,2013-01-05 23:54:00,
2013-01-05 23:59:00,44.5,42.3,30.35,North,0,0.0,0.0,92,0.00,,,0.12,WUHU216HW,2013-01-05 23:59:00,